Spottwood, South Dakota
Current Conditions -  °F | °C
As of 11:55 PM on Thursday 18 Dec 2014 (Local Time) from KHON Reporting Station
Haze Haze  
Wind Chill: 19°   Ceiling: 1400
Heat Index: 27°   Visibility: 5mi
Dew Point: 24°   Wind: 7mph
Humidity: 89%   Direction: 160°SSE
Pressure: 30.14"   Gusts: NA
Location:  44.7205°N, 98.5844°W
Report Text: KHON 190555Z AUTO 16006KT 5SM BR OVC014 M03/M04 A3014 RMK AO2 SLP225 T10281044 11028 21033 410281100 52003
Loading
Personal Weather Stations






























Interactive Weather Map New forecast layout! Learn more

10-Day Weather Forecast

Advertisements
Track Severe Weather on mobile